createdAt,value
2018-12-21T00:01:15.430Z,5.60
2018-12-21T00:03:44.148Z,5.60
2018-12-21T00:06:12.913Z,5.60
2018-12-21T00:08:41.612Z,5.60
2018-12-21T00:11:10.300Z,5.60
2018-12-21T00:13:38.963Z,5.60
2018-12-21T00:16:07.729Z,5.50
2018-12-21T00:18:36.400Z,5.50
2018-12-21T00:21:05.141Z,5.50
2018-12-21T00:23:33.856Z,5.50
2018-12-21T00:26:02.604Z,5.40
2018-12-21T00:28:31.309Z,5.40
2018-12-21T00:31:05.577Z,5.30
2018-12-21T00:33:39.764Z,5.30
2018-12-21T00:36:14.024Z,5.30
2018-12-21T00:38:48.197Z,5.30
2018-12-21T00:41:16.724Z,5.20
2018-12-21T00:43:47.055Z,5.20
2018-12-21T00:46:17.945Z,5.10
2018-12-21T00:48:46.688Z,5.10
2018-12-21T00:51:15.391Z,5.10
2018-12-21T00:53:44.108Z,5.00
2018-12-21T00:56:12.845Z,5.00
2018-12-21T00:58:41.577Z,5.00
2018-12-21T01:01:10.344Z,4.90
2018-12-21T01:03:39.059Z,4.90
2018-12-21T01:06:07.800Z,4.90
2018-12-21T01:08:36.501Z,4.90
2018-12-21T01:11:05.247Z,4.90
2018-12-21T01:13:33.987Z,4.90
2018-12-21T01:16:02.718Z,4.80
2018-12-21T01:18:31.443Z,4.90
2018-12-21T01:21:00.150Z,4.90
2018-12-21T01:23:28.898Z,5.00
2018-12-21T01:25:57.634Z,5.00
2018-12-21T01:28:26.330Z,5.00
2018-12-21T01:30:55.062Z,5.10
2018-12-21T01:33:23.761Z,5.10
2018-12-21T01:35:52.460Z,5.10
2018-12-21T01:38:21.263Z,5.10
2018-12-21T01:40:49.994Z,5.20
2018-12-21T01:43:18.726Z,5.20
2018-12-21T01:45:47.523Z,5.20
2018-12-21T01:48:16.187Z,5.20
2018-12-21T01:50:44.917Z,5.20
2018-12-21T01:53:13.750Z,5.20
2018-12-21T01:55:42.541Z,5.20
2018-12-21T01:58:11.306Z,5.30
2018-12-21T02:00:40.277Z,5.30
2018-12-21T02:03:09.079Z,5.30
2018-12-21T02:05:37.748Z,5.30
2018-12-21T02:08:06.514Z,5.30
2018-12-21T02:10:35.254Z,5.30
2018-12-21T02:13:03.974Z,5.40
2018-12-21T02:15:32.734Z,5.40
2018-12-21T02:18:01.480Z,5.40
2018-12-21T02:20:30.582Z,5.50
2018-12-21T02:22:59.280Z,5.50
2018-12-21T02:25:27.956Z,5.50
2018-12-21T02:27:56.669Z,5.50
2018-12-21T02:30:25.374Z,5.60
2018-12-21T02:32:54.080Z,5.50
2018-12-21T02:35:23.008Z,5.60
2018-12-21T02:37:51.743Z,5.60
2018-12-21T02:40:20.520Z,5.60
2018-12-21T02:42:49.359Z,5.70
2018-12-21T02:45:18.233Z,5.70
2018-12-21T02:47:46.947Z,5.70
2018-12-21T02:50:15.719Z,5.70
2018-12-21T02:52:44.460Z,5.70
2018-12-21T02:55:13.153Z,5.80
2018-12-21T02:57:41.906Z,5.80
2018-12-21T03:00:10.634Z,5.70
2018-12-21T03:02:39.347Z,5.80
2018-12-21T03:05:08.034Z,5.80
2018-12-21T03:07:37.064Z,5.80
2018-12-21T03:10:07.462Z,5.80
2018-12-21T03:12:36.125Z,5.90
2018-12-21T03:15:06.033Z,5.90
2018-12-21T03:17:34.721Z,5.90
2018-12-21T03:20:03.815Z,5.90
2018-12-21T03:22:32.524Z,5.90
2018-12-21T03:25:01.265Z,5.90
2018-12-21T03:27:30.024Z,5.90
2018-12-21T03:29:58.735Z,5.80
2018-12-21T03:32:27.481Z,5.80
2018-12-21T03:34:56.215Z,5.80
2018-12-21T03:37:25.035Z,5.70
2018-12-21T03:39:53.785Z,5.70
2018-12-21T03:42:22.467Z,5.70
2018-12-21T03:44:51.223Z,5.70
2018-12-21T03:47:19.974Z,5.70
2018-12-21T03:49:48.665Z,5.70
2018-12-21T03:52:24.117Z,5.70
2018-12-21T03:54:48.264Z,5.70
2018-12-21T03:57:16.977Z,5.70
2018-12-21T03:59:45.705Z,5.70
2018-12-21T04:02:14.424Z,5.70
2018-12-21T04:04:43.155Z,5.70
2018-12-21T04:07:12.010Z,5.70
2018-12-21T04:09:40.943Z,5.70
2018-12-21T04:12:09.607Z,5.70
2018-12-21T04:14:38.355Z,5.70
2018-12-21T04:17:07.035Z,5.70
2018-12-21T04:19:35.837Z,5.70
2018-12-21T04:22:04.583Z,5.70
2018-12-21T04:24:33.283Z,5.70
2018-12-21T04:27:02.017Z,5.70
2018-12-21T04:29:30.696Z,5.80
2018-12-21T04:31:59.439Z,5.80
2018-12-21T04:34:28.168Z,5.70
2018-12-21T04:36:56.880Z,5.70
2018-12-21T04:39:25.614Z,5.70
2018-12-21T04:41:54.330Z,5.70
2018-12-21T04:44:23.080Z,5.80
2018-12-21T04:46:51.827Z,5.80
2018-12-21T04:49:20.562Z,5.80
2018-12-21T04:51:49.256Z,5.70
2018-12-21T04:54:18.017Z,5.70
2018-12-21T04:56:46.778Z,5.70
2018-12-21T04:59:15.524Z,5.70
2018-12-21T05:01:44.217Z,5.70
2018-12-21T05:04:19.713Z,5.70
2018-12-21T05:06:43.678Z,5.70
2018-12-21T05:09:12.371Z,5.70
2018-12-21T05:11:41.057Z,5.70
2018-12-21T05:14:09.838Z,5.70
2018-12-21T05:16:38.796Z,5.70
2018-12-21T05:19:07.546Z,5.70
2018-12-21T05:21:36.265Z,5.70
2018-12-21T05:24:05.078Z,5.70
2018-12-21T05:26:33.790Z,5.70
2018-12-21T05:29:02.519Z,5.80
2018-12-21T05:31:31.273Z,5.80
2018-12-21T05:33:59.953Z,5.80
2018-12-21T05:36:28.692Z,5.80
2018-12-21T05:38:57.406Z,5.80
2018-12-21T05:41:26.112Z,5.80
2018-12-21T05:43:54.895Z,5.80
2018-12-21T05:46:23.615Z,5.80
2018-12-21T05:48:52.369Z,5.70
2018-12-21T05:51:21.090Z,5.80
2018-12-21T05:53:49.812Z,5.80
2018-12-21T05:56:18.531Z,5.80
2018-12-21T05:58:47.338Z,5.80
2018-12-21T06:01:16.105Z,5.80
2018-12-21T06:03:44.808Z,5.80
2018-12-21T06:06:13.487Z,5.80
2018-12-21T06:08:42.144Z,5.80
2018-12-21T06:11:10.881Z,5.80
2018-12-21T06:13:39.578Z,5.80
2018-12-21T06:16:08.368Z,5.80
2018-12-21T06:18:37.249Z,5.80
2018-12-21T06:21:05.953Z,5.80
2018-12-21T06:23:34.750Z,5.80
2018-12-21T06:26:03.497Z,5.80
2018-12-21T06:28:32.213Z,5.80
2018-12-21T06:31:00.928Z,5.80
2018-12-21T06:33:29.630Z,5.80
2018-12-21T06:35:58.410Z,5.80
2018-12-21T06:38:27.109Z,5.80
2018-12-21T06:40:55.816Z,5.80
2018-12-21T06:43:24.540Z,5.80
2018-12-21T06:45:53.265Z,5.80
2018-12-21T06:48:22.012Z,5.90
2018-12-21T06:50:50.917Z,5.90
2018-12-21T06:53:19.647Z,5.90
2018-12-21T06:55:48.378Z,5.90
2018-12-21T06:58:17.096Z,5.90
2018-12-21T07:00:45.828Z,5.90
2018-12-21T07:03:17.282Z,5.90
2018-12-21T07:05:45.297Z,5.90
2018-12-21T07:08:14.057Z,6.10
2018-12-21T07:10:42.758Z,6.10
2018-12-21T07:13:11.505Z,6.00
2018-12-21T07:15:40.245Z,6.10
2018-12-21T07:18:09.002Z,6.00
2018-12-21T07:20:37.755Z,6.00
2018-12-21T07:23:06.461Z,6.00
2018-12-21T07:25:35.152Z,6.00
2018-12-21T07:28:03.887Z,6.00
2018-12-21T07:30:32.577Z,6.00
2018-12-21T07:33:01.296Z,6.00
2018-12-21T07:35:30.038Z,6.00
2018-12-21T07:37:58.877Z,5.90
2018-12-21T07:40:27.564Z,5.90
2018-12-21T07:42:56.328Z,5.90
2018-12-21T07:45:25.111Z,5.90
2018-12-21T07:47:53.835Z,5.80
2018-12-21T07:50:22.524Z,5.80
2018-12-21T07:52:53.250Z,5.80
2018-12-21T07:55:21.959Z,5.80
2018-12-21T07:57:50.698Z,5.80
2018-12-21T08:00:19.553Z,5.80
2018-12-21T08:02:48.231Z,5.80
2018-12-21T08:05:16.925Z,5.80
2018-12-21T08:07:45.742Z,5.80
2018-12-21T08:10:14.974Z,5.90
2018-12-21T08:12:43.719Z,5.90
2018-12-21T08:15:12.442Z,5.90
2018-12-21T08:17:41.218Z,5.90
2018-12-21T08:20:09.980Z,6.00
2018-12-21T08:22:38.649Z,6.00
2018-12-21T08:25:07.590Z,6.00
2018-12-21T08:27:36.323Z,6.00
2018-12-21T08:30:07.563Z,6.00
2018-12-21T08:32:36.373Z,6.00
2018-12-21T08:35:05.213Z,6.00
2018-12-21T08:37:33.921Z,6.00
2018-12-21T08:40:02.698Z,6.00
2018-12-21T08:42:31.432Z,6.10
2018-12-21T08:45:00.148Z,6.00
2018-12-21T08:47:28.916Z,6.10
2018-12-21T08:49:57.625Z,6.10
2018-12-21T08:52:26.299Z,6.10
2018-12-21T08:54:55.091Z,6.00
2018-12-21T08:57:23.841Z,6.10
2018-12-21T08:59:52.584Z,6.10
2018-12-21T09:02:21.322Z,6.10
2018-12-21T09:04:50.103Z,6.10
2018-12-21T09:07:18.812Z,6.10
2018-12-21T09:09:47.524Z,6.10
2018-12-21T09:12:16.203Z,6.10
2018-12-21T09:14:44.887Z,6.10
2018-12-21T09:17:13.734Z,6.20
2018-12-21T09:19:42.602Z,6.20
2018-12-21T09:22:11.365Z,6.20
2018-12-21T09:24:40.212Z,6.20
2018-12-21T09:27:09.190Z,6.20
2018-12-21T09:29:37.942Z,6.30
2018-12-21T09:32:06.924Z,6.30
2018-12-21T09:34:35.616Z,6.40
2018-12-21T09:37:04.336Z,6.40
2018-12-21T09:39:33.063Z,6.40
2018-12-21T09:42:01.828Z,6.50
2018-12-21T09:44:30.618Z,6.50
2018-12-21T09:46:59.342Z,6.50
2018-12-21T09:49:28.123Z,6.60
2018-12-21T09:51:56.914Z,6.70
2018-12-21T09:54:25.639Z,6.60
2018-12-21T09:56:54.564Z,6.70
2018-12-21T09:59:23.321Z,6.70
2018-12-21T10:01:52.043Z,6.70
2018-12-21T10:04:20.807Z,6.80
2018-12-21T10:06:49.507Z,6.80
2018-12-21T10:09:18.214Z,6.80
2018-12-21T10:11:46.928Z,6.90
2018-12-21T10:14:16.376Z,6.90
2018-12-21T10:16:45.115Z,7.00
2018-12-21T10:19:13.835Z,7.00
2018-12-21T10:21:42.510Z,7.00
2018-12-21T10:24:18.411Z,7.00
2018-12-21T10:26:41.988Z,7.00
2018-12-21T10:29:10.691Z,6.90
2018-12-21T10:31:39.467Z,7.00
2018-12-21T10:34:08.155Z,7.00
2018-12-21T10:36:36.916Z,7.00
2018-12-21T10:39:07.000Z,7.00
2018-12-21T10:41:35.692Z,7.00
2018-12-21T10:44:04.400Z,7.00
2018-12-21T10:46:33.159Z,7.00
2018-12-21T10:49:01.871Z,7.10
2018-12-21T10:51:30.585Z,7.10
2018-12-21T10:53:59.332Z,7.10
2018-12-21T10:56:28.219Z,7.20
2018-12-21T10:58:56.899Z,7.10
2018-12-21T11:01:25.602Z,7.20
2018-12-21T11:03:54.298Z,7.20
2018-12-21T11:06:23.069Z,7.20
2018-12-21T11:08:51.815Z,7.10
2018-12-21T11:11:20.493Z,7.10
2018-12-21T11:13:49.206Z,7.10
2018-12-21T11:16:17.928Z,7.10
2018-12-21T11:18:46.662Z,7.10
2018-12-21T11:21:15.420Z,7.20
2018-12-21T11:23:44.154Z,7.20
2018-12-21T11:26:12.844Z,7.20
2018-12-21T11:28:41.589Z,7.30
2018-12-21T11:31:10.335Z,7.30
2018-12-21T11:33:39.038Z,7.20
2018-12-21T11:36:07.764Z,7.30
2018-12-21T11:38:36.440Z,7.20
2018-12-21T11:41:05.160Z,7.30
2018-12-21T11:43:35.275Z,7.30
2018-12-21T11:46:04.342Z,7.30
2018-12-21T11:48:33.140Z,7.30
2018-12-21T11:51:01.863Z,7.20
2018-12-21T11:53:30.617Z,7.20
2018-12-21T11:55:59.343Z,7.20
2018-12-21T11:58:28.079Z,7.20
2018-12-21T12:00:56.781Z,7.30
2018-12-21T12:03:25.443Z,7.20
2018-12-21T12:05:54.179Z,7.20
2018-12-21T12:08:22.843Z,7.20
2018-12-21T12:10:51.553Z,7.10
2018-12-21T12:13:20.284Z,7.20
2018-12-21T12:15:49.046Z,7.20
2018-12-21T12:18:17.771Z,7.20
2018-12-21T12:20:46.465Z,7.20
2018-12-21T12:23:15.159Z,7.20
2018-12-21T12:25:43.870Z,7.10
2018-12-21T12:28:12.622Z,7.10
2018-12-21T12:30:41.318Z,7.10
2018-12-21T12:33:10.026Z,7.10
2018-12-21T12:35:38.720Z,7.10
2018-12-21T12:38:07.462Z,7.10
2018-12-21T12:40:36.286Z,7.00
2018-12-21T12:43:05.015Z,7.00
2018-12-21T12:45:33.762Z,6.90
2018-12-21T12:48:02.456Z,6.90
2018-12-21T12:50:31.130Z,6.90
2018-12-21T12:53:00.538Z,6.80
2018-12-21T12:55:30.789Z,6.80
2018-12-21T12:57:59.495Z,6.80
2018-12-21T13:00:28.970Z,6.80
2018-12-21T13:02:57.700Z,6.70
2018-12-21T13:05:26.492Z,6.70
2018-12-21T13:07:55.205Z,6.70
2018-12-21T13:10:23.908Z,6.70
2018-12-21T13:12:52.595Z,6.70
2018-12-21T13:15:21.346Z,6.60
2018-12-21T13:17:50.108Z,6.60
2018-12-21T13:20:18.771Z,6.60
2018-12-21T13:22:47.510Z,6.60
2018-12-21T13:25:16.228Z,6.60
2018-12-21T13:27:45.030Z,6.60
2018-12-21T13:30:15.138Z,6.60
2018-12-21T13:32:43.886Z,6.60
2018-12-21T13:35:12.602Z,6.60
2018-12-21T13:37:42.941Z,6.60
2018-12-21T13:40:11.731Z,6.60
2018-12-21T13:42:40.443Z,6.60
2018-12-21T13:45:09.554Z,6.60
2018-12-21T13:47:38.351Z,6.50
2018-12-21T13:50:09.472Z,6.50
2018-12-21T13:52:38.147Z,6.50
2018-12-21T13:55:06.848Z,6.50
2018-12-21T13:57:35.538Z,6.50
2018-12-21T14:00:07.391Z,6.50
2018-12-21T14:02:36.078Z,6.50
2018-12-21T14:05:05.439Z,6.50
2018-12-21T14:07:34.190Z,6.40
2018-12-21T14:10:03.076Z,6.40
2018-12-21T14:12:31.814Z,6.50
2018-12-21T14:15:00.497Z,6.40
2018-12-21T14:17:29.253Z,6.40
2018-12-21T14:19:57.953Z,6.40
2018-12-21T14:22:26.717Z,6.40
2018-12-21T14:24:55.443Z,6.40
2018-12-21T14:27:24.192Z,6.40
2018-12-21T14:29:52.859Z,6.40
2018-12-21T14:32:21.539Z,6.40
2018-12-21T14:34:50.268Z,6.40
2018-12-21T14:37:18.956Z,6.40
2018-12-21T14:39:47.653Z,6.40
2018-12-21T14:42:16.403Z,6.40
2018-12-21T14:44:45.189Z,6.40
2018-12-21T14:47:14.059Z,6.40
2018-12-21T14:49:42.790Z,6.40
2018-12-21T14:52:11.502Z,6.40
2018-12-21T14:54:40.226Z,6.40
2018-12-21T14:57:08.970Z,6.40
2018-12-21T14:59:37.680Z,6.40
2018-12-21T15:02:06.351Z,6.30
2018-12-21T15:04:35.094Z,6.40
2018-12-21T15:07:03.806Z,6.40
2018-12-21T15:09:32.523Z,6.40
2018-12-21T15:12:01.273Z,6.30
2018-12-21T15:14:29.977Z,6.30
2018-12-21T15:16:58.677Z,6.30
2018-12-21T15:19:27.354Z,6.40
2018-12-21T15:21:57.350Z,6.30
2018-12-21T15:24:26.639Z,6.30
2018-12-21T15:26:55.362Z,6.30
2018-12-21T15:29:24.068Z,6.40
2018-12-21T15:31:52.744Z,6.40
2018-12-21T15:34:21.599Z,6.40
2018-12-21T15:36:50.281Z,6.40
2018-12-21T15:39:19.012Z,6.40
2018-12-21T15:41:47.724Z,6.40
2018-12-21T15:44:16.389Z,6.40
2018-12-21T15:46:45.099Z,6.40
2018-12-21T15:49:13.804Z,6.40
2018-12-21T15:51:42.640Z,6.40
2018-12-21T15:54:11.858Z,6.50
2018-12-21T15:56:40.633Z,6.50
2018-12-21T15:59:09.340Z,6.50
2018-12-21T16:01:38.092Z,6.50
2018-12-21T16:04:06.816Z,6.50
2018-12-21T16:06:35.700Z,6.50
2018-12-21T16:09:06.521Z,6.50
2018-12-21T16:11:35.287Z,6.50
2018-12-21T16:14:04.032Z,6.50
2018-12-21T16:16:32.792Z,6.50
2018-12-21T16:19:01.470Z,6.50
2018-12-21T16:21:30.184Z,6.50
2018-12-21T16:24:06.671Z,6.50
2018-12-21T16:26:29.707Z,6.60
2018-12-21T16:28:58.417Z,6.50
2018-12-21T16:31:27.117Z,6.50
2018-12-21T16:33:55.862Z,6.50
2018-12-21T16:36:24.551Z,6.60
2018-12-21T16:38:53.309Z,6.50
2018-12-21T16:41:21.989Z,6.60
2018-12-21T16:43:50.660Z,6.60
2018-12-21T16:46:19.436Z,6.60
2018-12-21T16:48:48.140Z,6.60
2018-12-21T16:51:16.824Z,6.60
2018-12-21T16:53:45.598Z,6.60
2018-12-21T16:56:14.291Z,6.60
2018-12-21T16:58:43.004Z,6.60
2018-12-21T17:01:11.726Z,6.60
2018-12-21T17:03:40.426Z,6.60
2018-12-21T17:06:09.230Z,6.60
2018-12-21T17:08:38.061Z,6.60
2018-12-21T17:11:06.772Z,6.60
2018-12-21T17:13:35.440Z,6.60
2018-12-21T17:16:04.182Z,6.60
2018-12-21T17:18:32.911Z,6.60
2018-12-21T17:21:01.709Z,6.60
2018-12-21T17:23:30.409Z,6.60
2018-12-21T17:25:59.104Z,6.60
2018-12-21T17:28:27.824Z,6.60
2018-12-21T17:30:56.505Z,6.60
2018-12-21T17:33:25.212Z,6.60
2018-12-21T17:35:53.917Z,6.60
2018-12-21T17:38:22.662Z,6.60
2018-12-21T17:40:51.360Z,6.60
2018-12-21T17:43:20.059Z,6.60
2018-12-21T17:45:48.798Z,6.60
2018-12-21T17:48:17.475Z,6.70
2018-12-21T17:50:46.189Z,6.70
2018-12-21T17:53:14.900Z,6.70
2018-12-21T17:55:43.689Z,6.70
2018-12-21T17:58:12.394Z,6.80
2018-12-21T18:00:41.104Z,6.80
2018-12-21T18:03:10.134Z,6.90
2018-12-21T18:05:38.867Z,7.00
2018-12-21T18:08:07.568Z,7.10
2018-12-21T18:10:36.251Z,7.20
2018-12-21T18:13:04.928Z,7.20
2018-12-21T18:15:33.652Z,7.30
2018-12-21T18:18:02.375Z,7.30
2018-12-21T18:20:31.105Z,7.50
2018-12-21T18:23:00.921Z,7.60
2018-12-21T18:25:29.691Z,7.70
2018-12-21T18:27:58.435Z,7.80
2018-12-21T18:30:27.148Z,7.80
2018-12-21T18:32:55.914Z,7.90
2018-12-21T18:35:24.604Z,8.00
2018-12-21T18:37:53.313Z,8.00
2018-12-21T18:40:22.073Z,8.10
2018-12-21T18:42:50.779Z,8.10
2018-12-21T18:45:19.507Z,8.20
2018-12-21T18:47:48.156Z,8.20
2018-12-21T18:50:16.896Z,8.20
2018-12-21T18:52:45.634Z,8.30
2018-12-21T18:55:15.038Z,8.30
2018-12-21T18:57:43.739Z,8.40
2018-12-21T19:00:14.137Z,8.40
2018-12-21T19:02:42.903Z,8.50
2018-12-21T19:05:11.644Z,8.50
2018-12-21T19:07:40.387Z,8.60
2018-12-21T19:10:09.284Z,8.60
2018-12-21T19:12:38.011Z,8.70
2018-12-21T19:15:07.637Z,8.70
2018-12-21T19:17:36.337Z,8.80
2018-12-21T19:20:08.141Z,8.80
2018-12-21T19:22:36.827Z,8.80
2018-12-21T19:25:06.839Z,8.90
2018-12-21T19:27:35.550Z,9.00
2018-12-21T19:30:05.548Z,9.00
2018-12-21T19:32:34.602Z,9.00
2018-12-21T19:35:03.406Z,8.90
2018-12-21T19:37:32.075Z,8.90
2018-12-21T19:40:00.754Z,8.90
2018-12-21T19:42:29.433Z,8.90
2018-12-21T19:44:58.132Z,9.00
2018-12-21T19:47:26.789Z,9.00
2018-12-21T19:49:55.462Z,9.00
2018-12-21T19:52:24.165Z,9.00
2018-12-21T19:54:53.022Z,9.00
2018-12-21T19:57:21.700Z,8.90
2018-12-21T19:59:50.430Z,9.00
2018-12-21T20:02:19.162Z,9.00
2018-12-21T20:04:47.912Z,9.00
2018-12-21T20:07:16.599Z,9.00
2018-12-21T20:09:45.284Z,9.00
2018-12-21T20:12:13.977Z,9.00
2018-12-21T20:14:42.738Z,9.00
2018-12-21T20:17:11.472Z,9.00
2018-12-21T20:19:40.187Z,9.10
2018-12-21T20:22:08.931Z,9.10
2018-12-21T20:24:37.633Z,9.00
2018-12-21T20:27:13.482Z,9.10
2018-12-21T20:29:37.013Z,9.10
2018-12-21T20:32:05.694Z,9.10
2018-12-21T20:34:34.402Z,9.20
2018-12-21T20:37:03.093Z,9.20
2018-12-21T20:39:31.824Z,9.30
2018-12-21T20:42:00.550Z,9.40
2018-12-21T20:44:29.248Z,9.50
2018-12-21T20:46:58.269Z,9.60
2018-12-21T20:49:27.014Z,9.70
2018-12-21T20:51:55.684Z,9.70
2018-12-21T20:54:24.476Z,9.80
2018-12-21T20:56:53.129Z,9.80
2018-12-21T20:59:21.849Z,9.80
2018-12-21T21:01:50.541Z,9.80
2018-12-21T21:04:19.233Z,9.90
2018-12-21T21:06:47.894Z,9.90
2018-12-21T21:09:16.568Z,10.00
2018-12-21T21:11:45.292Z,10.00
2018-12-21T21:14:14.151Z,10.00
2018-12-21T21:16:42.876Z,10.00
2018-12-21T21:19:11.597Z,9.90
2018-12-21T21:21:40.285Z,10.00
2018-12-21T21:24:09.014Z,10.00
2018-12-21T21:26:37.985Z,10.10
2018-12-21T21:29:06.661Z,10.20
2018-12-21T21:31:35.397Z,10.30
2018-12-21T21:34:04.060Z,10.40
2018-12-21T21:36:32.755Z,10.50
2018-12-21T21:39:01.490Z,10.50
2018-12-21T21:41:30.201Z,10.50
2018-12-21T21:43:58.957Z,10.60
2018-12-21T21:46:27.648Z,10.50
2018-12-21T21:48:56.318Z,10.60
2018-12-21T21:51:25.021Z,10.60
2018-12-21T21:53:53.764Z,10.70
2018-12-21T21:56:22.495Z,10.70
2018-12-21T21:58:51.212Z,10.80
2018-12-21T22:01:19.896Z,10.80
2018-12-21T22:03:48.664Z,10.80
2018-12-21T22:06:17.329Z,10.80
2018-12-21T22:08:46.044Z,10.80
2018-12-21T22:11:14.725Z,10.80
2018-12-21T22:13:43.428Z,10.80
2018-12-21T22:16:12.127Z,10.80
2018-12-21T22:18:42.417Z,10.70
2018-12-21T22:21:11.140Z,10.80
2018-12-21T22:23:40.778Z,10.80
2018-12-21T22:26:09.496Z,10.70
2018-12-21T22:28:38.184Z,10.70
2018-12-21T22:31:06.901Z,10.70
2018-12-21T22:33:35.603Z,10.70
2018-12-21T22:36:04.342Z,10.60
2018-12-21T22:38:33.093Z,10.60
2018-12-21T22:41:01.809Z,10.50
2018-12-21T22:43:30.518Z,10.50
2018-12-21T22:45:59.310Z,10.40
2018-12-21T22:48:28.122Z,10.40
2018-12-21T22:50:56.909Z,10.30
2018-12-21T22:53:25.673Z,10.30
2018-12-21T22:55:54.373Z,10.10
2018-12-21T22:58:23.120Z,10.10
2018-12-21T23:00:51.777Z,9.90
2018-12-21T23:03:20.464Z,9.90
2018-12-21T23:05:49.140Z,9.90
2018-12-21T23:08:17.803Z,9.80
2018-12-21T23:10:46.513Z,9.70
2018-12-21T23:13:15.266Z,9.70
2018-12-21T23:15:49.872Z,9.70
2018-12-21T23:18:21.419Z,9.60
2018-12-21T23:20:50.611Z,9.60
2018-12-21T23:23:19.445Z,9.60
2018-12-21T23:25:48.310Z,9.60
2018-12-21T23:28:17.162Z,9.70
2018-12-21T23:30:46.082Z,9.60
2018-12-21T23:35:43.836Z,9.60
2018-12-21T23:38:12.741Z,9.50
2018-12-21T23:40:41.600Z,9.50
2018-12-21T23:43:10.405Z,9.50
2018-12-21T23:45:39.662Z,9.40
2018-12-21T23:48:08.384Z,9.60
2018-12-21T23:50:37.130Z,9.60
2018-12-21T23:53:05.786Z,9.50
2018-12-21T23:55:34.503Z,9.50
2018-12-21T23:58:03.185Z,9.60
